createdAt,value
2023-05-19T00:00:45.029Z,52.14
2023-05-19T00:01:43.365Z,50.72
2023-05-19T00:02:43.546Z,50.98
2023-05-19T00:03:43.421Z,53.70
2023-05-19T00:04:43.389Z,51.43
2023-05-19T00:05:43.422Z,52.82
2023-05-19T00:06:43.320Z,53.09
2023-05-19T00:07:43.651Z,51.01
2023-05-19T00:08:43.384Z,50.53
2023-05-19T00:09:43.350Z,54.07
2023-05-19T00:10:43.315Z,51.06
2023-05-19T00:11:43.281Z,49.95
2023-05-19T00:12:43.344Z,54.30
2023-05-19T00:13:43.307Z,50.88
2023-05-19T00:14:43.257Z,55.15
2023-05-19T00:15:43.294Z,58.17
2023-05-19T00:16:43.251Z,51.38
2023-05-19T00:17:43.347Z,52.82
2023-05-19T00:18:43.642Z,53.82
2023-05-19T00:19:43.222Z,52.52
2023-05-19T00:20:43.214Z,52.74
2023-05-19T00:21:43.226Z,51.31
2023-05-19T00:22:43.125Z,52.51
2023-05-19T00:23:43.085Z,49.97
2023-05-19T00:24:43.099Z,53.19
2023-05-19T00:25:43.101Z,54.62
2023-05-19T00:26:43.053Z,57.28
2023-05-19T00:27:43.153Z,53.56
2023-05-19T00:28:43.062Z,56.00
2023-05-19T00:29:43.101Z,54.60
2023-05-19T00:30:43.107Z,53.50
2023-05-19T00:31:43.139Z,55.77
2023-05-19T00:32:43.162Z,56.40
2023-05-19T00:33:43.107Z,53.23
2023-05-19T00:34:43.197Z,56.80
2023-05-19T00:35:43.362Z,53.35
2023-05-19T00:36:43.182Z,52.29
2023-05-19T00:37:43.167Z,53.28
2023-05-19T00:38:43.098Z,54.92
2023-05-19T00:39:43.160Z,53.51
2023-05-19T00:40:43.049Z,53.08
2023-05-19T00:41:43.044Z,56.89
2023-05-19T00:42:43.052Z,56.02
2023-05-19T00:43:43.042Z,55.75
2023-05-19T00:44:43.031Z,53.80
2023-05-19T00:45:43.070Z,53.86
2023-05-19T00:46:43.295Z,54.97
2023-05-19T00:47:43.084Z,55.90
2023-05-19T00:48:43.010Z,56.86
2023-05-19T00:49:43.022Z,54.66
2023-05-19T00:50:43.036Z,57.08
2023-05-19T00:51:43.031Z,54.03
2023-05-19T00:52:43.006Z,56.87
2023-05-19T00:53:42.985Z,54.19
2023-05-19T00:54:43.044Z,55.66
2023-05-19T00:55:43.033Z,56.43
2023-05-19T00:56:42.849Z,55.86
2023-05-19T00:57:42.837Z,55.50
2023-05-19T00:58:42.876Z,54.55
2023-05-19T00:59:42.852Z,55.82
2023-05-19T01:00:43.421Z,58.16
2023-05-19T01:01:42.928Z,54.33
2023-05-19T01:02:43.069Z,55.36
2023-05-19T01:03:43.369Z,57.38
2023-05-19T01:04:42.946Z,54.03
2023-05-19T01:05:42.960Z,55.63
2023-05-19T01:06:42.895Z,55.88
2023-05-19T01:07:42.887Z,56.68
2023-05-19T01:08:42.850Z,55.11
2023-05-19T01:09:42.880Z,53.83
2023-05-19T01:10:42.891Z,54.63
2023-05-19T01:11:42.917Z,54.23
2023-05-19T01:12:42.847Z,54.52
2023-05-19T01:13:43.930Z,56.15
2023-05-19T01:14:43.162Z,56.04
2023-05-19T01:15:42.892Z,55.71
2023-05-19T01:16:43.008Z,56.96
2023-05-19T01:17:42.915Z,54.88
2023-05-19T01:18:42.824Z,56.40
2023-05-19T01:19:42.885Z,56.87
2023-05-19T01:20:42.800Z,55.35
2023-05-19T01:21:42.797Z,58.67
2023-05-19T01:22:42.725Z,57.42
2023-05-19T01:23:42.735Z,57.42
2023-05-19T01:24:42.681Z,55.95
2023-05-19T01:25:42.655Z,56.19
2023-05-19T01:26:42.635Z,57.82
2023-05-19T01:27:42.718Z,56.09
2023-05-19T01:28:42.669Z,56.15
2023-05-19T01:29:42.614Z,56.41
2023-05-19T01:30:42.681Z,58.56
2023-05-19T01:31:42.690Z,58.60
2023-05-19T01:32:42.695Z,56.85
2023-05-19T01:33:42.628Z,57.11
2023-05-19T01:34:43.697Z,56.64
2023-05-19T01:35:42.596Z,58.37
2023-05-19T01:36:42.714Z,57.13
2023-05-19T01:37:42.768Z,56.47
2023-05-19T01:38:42.684Z,55.62
2023-05-19T01:39:42.683Z,59.94
2023-05-19T01:40:42.759Z,56.37
2023-05-19T01:41:42.705Z,55.96
2023-05-19T01:42:42.757Z,55.49
2023-05-19T01:43:42.705Z,56.94
2023-05-19T01:44:42.705Z,58.82
2023-05-19T01:45:43.052Z,57.63
2023-05-19T01:46:42.711Z,56.77
2023-05-19T01:47:42.699Z,57.71
2023-05-19T01:48:42.634Z,57.08
2023-05-19T01:49:42.611Z,57.37
2023-05-19T01:50:42.632Z,58.69
2023-05-19T01:51:42.610Z,55.83
2023-05-19T01:52:42.638Z,59.24
2023-05-19T01:53:42.632Z,58.67
2023-05-19T01:54:42.567Z,55.57
2023-05-19T01:55:42.553Z,54.65
2023-05-19T01:56:42.853Z,56.24
2023-05-19T01:57:42.854Z,57.85
2023-05-19T01:58:42.566Z,57.13
2023-05-19T01:59:42.490Z,55.84
2023-05-19T02:00:42.440Z,56.49
2023-05-19T02:01:42.543Z,57.93
2023-05-19T02:02:42.425Z,57.79
2023-05-19T02:03:42.432Z,56.64
2023-05-19T02:04:42.537Z,55.89
2023-05-19T02:05:42.410Z,56.20
2023-05-19T02:06:42.376Z,57.72
2023-05-19T02:07:42.423Z,56.28
2023-05-19T02:08:42.394Z,56.69
2023-05-19T02:09:42.418Z,58.03
2023-05-19T02:10:42.508Z,57.14
2023-05-19T02:11:42.465Z,57.42
2023-05-19T02:12:42.486Z,57.86
2023-05-19T02:13:42.354Z,56.27
2023-05-19T02:14:42.754Z,57.67
2023-05-19T02:15:42.576Z,56.98
2023-05-19T02:16:42.482Z,58.12
2023-05-19T02:17:42.454Z,59.56
2023-05-19T02:18:42.449Z,60.37
2023-05-19T02:19:42.406Z,59.08
2023-05-19T02:20:42.433Z,57.87
2023-05-19T02:21:42.426Z,60.36
2023-05-19T02:22:42.422Z,61.11
2023-05-19T02:23:42.423Z,60.09
2023-05-19T02:24:42.441Z,59.58
2023-05-19T02:25:42.697Z,59.63
2023-05-19T02:26:42.335Z,58.92
2023-05-19T02:27:42.354Z,58.75
2023-05-19T02:28:42.340Z,59.17
2023-05-19T02:29:42.343Z,59.21
2023-05-19T02:30:42.395Z,61.19
2023-05-19T02:31:43.458Z,60.70
2023-05-19T02:32:42.466Z,60.25
2023-05-19T02:33:42.295Z,61.10
2023-05-19T02:34:42.337Z,60.95
2023-05-19T02:35:42.318Z,61.35
2023-05-19T02:36:42.636Z,60.82
2023-05-19T02:37:42.263Z,60.74
2023-05-19T02:38:42.238Z,62.94
2023-05-19T02:39:42.301Z,63.02
2023-05-19T02:40:42.192Z,61.77
2023-05-19T02:41:42.249Z,62.57
2023-05-19T02:42:42.173Z,61.73
2023-05-19T02:43:42.181Z,61.71
2023-05-19T02:44:42.167Z,62.50
2023-05-19T02:45:42.162Z,62.96
2023-05-19T02:46:42.409Z,62.21
2023-05-19T02:47:43.198Z,61.40
2023-05-19T02:48:42.114Z,62.79
2023-05-19T02:49:42.168Z,61.00
2023-05-19T02:50:42.258Z,63.05
2023-05-19T02:51:42.248Z,61.52
2023-05-19T02:52:42.231Z,60.61
2023-05-19T02:53:42.284Z,61.55
2023-05-19T02:54:42.484Z,61.16
2023-05-19T02:55:42.196Z,60.63
2023-05-19T02:56:42.193Z,60.62
2023-05-19T02:57:42.222Z,61.45
2023-05-19T02:58:42.190Z,60.73
2023-05-19T02:59:42.173Z,61.60
2023-05-19T03:00:42.157Z,60.91
2023-05-19T03:01:42.151Z,61.19
2023-05-19T03:02:42.260Z,61.05
2023-05-19T03:03:42.274Z,60.07
2023-05-19T03:04:42.117Z,60.10
2023-05-19T03:05:42.373Z,61.29
2023-05-19T03:06:43.070Z,63.08
2023-05-19T03:07:42.090Z,62.58
2023-05-19T03:08:42.516Z,62.18
2023-05-19T03:09:43.088Z,63.01
2023-05-19T03:10:42.072Z,62.43
2023-05-19T03:11:42.068Z,62.58
2023-05-19T03:12:42.336Z,62.48
2023-05-19T03:13:41.989Z,63.41
2023-05-19T03:14:41.940Z,61.68
2023-05-19T03:15:41.964Z,60.87
2023-05-19T03:16:42.141Z,62.36
2023-05-19T03:17:42.086Z,62.61
2023-05-19T03:18:41.945Z,62.57
2023-05-19T03:19:41.902Z,63.01
2023-05-19T03:20:41.933Z,61.60
2023-05-19T03:21:41.906Z,62.87
2023-05-19T03:22:41.908Z,61.77
2023-05-19T03:23:42.045Z,64.39
2023-05-19T03:24:41.985Z,62.78
2023-05-19T03:25:41.975Z,61.86
2023-05-19T03:26:41.973Z,62.49
2023-05-19T03:27:42.021Z,64.18
2023-05-19T03:28:41.934Z,61.66
2023-05-19T03:29:42.048Z,59.83
2023-05-19T03:30:41.986Z,62.38
2023-05-19T03:31:41.938Z,62.97
2023-05-19T03:32:42.099Z,63.64
2023-05-19T03:33:42.285Z,62.49
2023-05-19T03:34:41.961Z,61.86
2023-05-19T03:35:41.935Z,61.93
2023-05-19T03:36:41.902Z,62.84
2023-05-19T03:37:41.895Z,62.68
2023-05-19T03:38:41.877Z,61.70
2023-05-19T03:39:42.381Z,63.00
2023-05-19T03:40:41.872Z,62.18
2023-05-19T03:41:42.003Z,61.61
2023-05-19T03:42:41.864Z,64.22
2023-05-19T03:43:41.873Z,62.86
2023-05-19T03:44:41.737Z,63.77
2023-05-19T03:45:41.963Z,60.73
2023-05-19T03:46:41.818Z,62.76
2023-05-19T03:47:41.821Z,62.60
2023-05-19T03:48:41.819Z,62.95
2023-05-19T03:49:41.853Z,62.79
2023-05-19T03:50:41.809Z,62.88
2023-05-19T03:51:41.789Z,64.37
2023-05-19T03:52:41.746Z,61.64
2023-05-19T03:53:41.783Z,63.04
2023-05-19T03:54:41.798Z,63.00
2023-05-19T03:55:41.719Z,62.43
2023-05-19T03:56:41.680Z,61.56
2023-05-19T03:57:41.658Z,60.91
2023-05-19T03:58:41.648Z,63.54
2023-05-19T03:59:41.645Z,61.17
2023-05-19T04:00:41.761Z,61.49
2023-05-19T04:01:41.986Z,62.47
2023-05-19T04:02:41.688Z,62.77
2023-05-19T04:03:41.793Z,62.41
2023-05-19T04:04:41.843Z,62.26
2023-05-19T04:05:41.713Z,61.85
2023-05-19T04:06:41.830Z,61.11
2023-05-19T04:07:41.949Z,62.45
2023-05-19T04:08:41.756Z,60.08
2023-05-19T04:09:41.752Z,61.43
2023-05-19T04:10:41.681Z,61.87
2023-05-19T04:11:41.669Z,63.63
2023-05-19T04:12:41.689Z,60.59
2023-05-19T04:13:41.568Z,61.58
2023-05-19T04:14:41.629Z,64.10
2023-05-19T04:15:41.719Z,62.18
2023-05-19T08:15:48.919Z,58.94
2023-05-19T08:16:48.938Z,56.88
2023-05-19T08:17:49.215Z,58.39
2023-05-19T08:18:50.172Z,58.57
2023-05-19T08:19:50.049Z,58.34
2023-05-19T08:20:50.139Z,60.56
2023-05-19T08:21:50.107Z,58.51
2023-05-19T08:22:50.085Z,59.30
2023-05-19T08:23:50.000Z,58.39
2023-05-19T08:24:49.940Z,57.85
2023-05-19T08:25:49.917Z,57.64
2023-05-19T08:26:49.936Z,57.92
2023-05-19T08:27:50.073Z,60.30
2023-05-19T08:28:49.940Z,59.85
2023-05-19T08:29:49.909Z,59.29
2023-05-19T08:30:50.034Z,58.55
2023-05-19T08:31:49.919Z,57.50
2023-05-19T08:32:49.994Z,57.62
2023-05-19T08:33:50.190Z,57.68
2023-05-19T08:34:50.001Z,57.85
2023-05-19T08:35:49.990Z,59.36
2023-05-19T08:36:49.910Z,57.72
2023-05-19T08:37:49.981Z,57.10
2023-05-19T08:38:49.952Z,55.47
2023-05-19T08:39:49.965Z,56.72
2023-05-19T08:40:49.954Z,56.81
2023-05-19T08:41:49.921Z,58.35
2023-05-19T08:42:49.850Z,56.80
2023-05-19T08:43:49.954Z,56.95
2023-05-19T08:44:50.101Z,57.60
2023-05-19T08:45:49.870Z,57.96
2023-05-19T08:46:50.041Z,59.08
2023-05-19T08:47:49.940Z,58.73
2023-05-19T08:48:50.067Z,56.10
2023-05-19T08:49:49.869Z,56.99
2023-05-19T08:50:49.909Z,56.16
2023-05-19T08:51:49.871Z,54.28
2023-05-19T08:52:52.490Z,56.18
2023-05-19T08:53:50.972Z,55.91
2023-05-19T08:54:49.718Z,56.11
2023-05-19T08:55:49.692Z,55.11
2023-05-19T08:56:49.791Z,57.70
2023-05-19T08:57:49.749Z,57.58
2023-05-19T08:58:49.758Z,57.76
2023-05-19T08:59:49.663Z,56.97
2023-05-19T09:00:49.669Z,57.83
2023-05-19T09:01:49.652Z,56.50
2023-05-19T09:02:59.855Z,55.44
2023-05-19T09:03:51.756Z,55.78
2023-05-19T09:04:49.739Z,55.55
2023-05-19T09:05:49.766Z,56.45
2023-05-19T09:06:49.757Z,56.72
2023-05-19T09:07:49.720Z,55.19
2023-05-19T09:08:49.796Z,55.50
2023-05-19T09:09:49.818Z,54.28
2023-05-19T09:10:49.827Z,54.43
2023-05-19T09:11:49.945Z,53.35
2023-05-19T09:12:49.928Z,54.20
2023-05-19T09:13:49.536Z,53.28
2023-05-19T09:14:49.647Z,51.72
2023-05-19T09:15:50.726Z,53.13
2023-05-19T09:16:49.855Z,55.11
2023-05-19T09:17:49.732Z,55.38
2023-05-19T09:18:49.673Z,51.52
2023-05-19T09:19:49.584Z,52.69
2023-05-19T09:20:49.630Z,50.84
2023-05-19T09:21:50.219Z,52.98
2023-05-19T09:22:49.608Z,51.19
2023-05-19T09:23:49.769Z,55.17
2023-05-19T09:24:49.537Z,52.76
2023-05-19T09:25:49.622Z,53.98
2023-05-19T09:26:50.026Z,54.44
2023-05-19T09:27:49.983Z,53.85
2023-05-19T09:28:49.844Z,52.53
2023-05-19T09:29:49.649Z,54.75
2023-05-19T09:30:49.567Z,52.85
2023-05-19T09:31:50.029Z,54.97
2023-05-19T09:32:49.556Z,55.08
2023-05-19T09:33:49.560Z,54.93
2023-05-19T09:34:49.563Z,54.44
2023-05-19T09:35:49.498Z,53.92
2023-05-19T09:36:51.534Z,54.49
2023-05-19T09:37:49.518Z,54.21
2023-05-19T09:38:49.457Z,56.64
2023-05-19T09:39:49.777Z,56.19
2023-05-19T09:40:49.602Z,57.12
2023-05-19T09:41:49.762Z,56.22
2023-05-19T09:42:49.558Z,55.46
2023-05-19T09:43:49.505Z,54.48
2023-05-19T09:44:49.447Z,55.50
2023-05-19T09:45:49.382Z,53.30
2023-05-19T09:46:49.345Z,52.48
2023-05-19T09:47:49.510Z,52.99
2023-05-19T09:48:49.497Z,52.17
2023-05-19T09:49:49.571Z,52.15
2023-05-19T09:50:49.530Z,54.07
2023-05-19T09:51:49.356Z,54.74
2023-05-19T09:52:50.490Z,54.29
2023-05-19T09:53:49.328Z,53.12
2023-05-19T09:54:49.627Z,52.80
2023-05-19T09:55:49.478Z,54.20
2023-05-19T09:56:49.577Z,55.36
2023-05-19T09:57:49.536Z,53.74
2023-05-19T09:58:49.472Z,53.58
2023-05-19T09:59:49.600Z,55.55
2023-05-19T10:00:49.441Z,54.65
2023-05-19T10:01:49.596Z,55.87
2023-05-19T10:02:49.290Z,56.70
2023-05-19T10:03:49.596Z,56.57
2023-05-19T10:04:49.368Z,56.93
2023-05-19T10:05:49.745Z,55.64
2023-05-19T10:06:49.501Z,57.78
2023-05-19T10:07:49.615Z,58.01
2023-05-19T10:08:49.867Z,57.36
2023-05-19T10:09:49.624Z,59.57
2023-05-19T10:10:49.187Z,60.93
2023-05-19T10:11:49.243Z,60.07
2023-05-19T10:12:49.231Z,57.26
2023-05-19T10:13:50.246Z,55.71
2023-05-19T10:14:49.118Z,57.43
2023-05-19T10:15:57.929Z,60.74
2023-05-19T10:16:51.222Z,56.46
2023-05-19T10:17:49.141Z,56.42
2023-05-19T10:18:49.259Z,57.99
2023-05-19T10:19:49.225Z,55.15
2023-05-19T10:20:49.189Z,54.90
2023-05-19T10:21:49.237Z,53.94
2023-05-19T10:22:49.274Z,54.80
2023-05-19T10:23:49.474Z,54.81
2023-05-19T10:24:49.176Z,55.22
2023-05-19T10:25:49.394Z,55.64
2023-05-19T10:26:49.157Z,56.46
2023-05-19T10:27:49.176Z,56.64
2023-05-19T10:28:49.150Z,56.79
2023-05-19T10:29:49.630Z,57.08
2023-05-19T10:30:49.172Z,56.83
2023-05-19T10:31:49.344Z,54.54
2023-05-19T10:32:49.191Z,55.69
2023-05-19T10:33:49.432Z,56.65
2023-05-19T10:34:49.604Z,56.07
2023-05-19T10:35:49.270Z,54.81
2023-05-19T10:36:49.569Z,54.18
2023-05-19T10:37:50.169Z,54.88
2023-05-19T10:38:49.132Z,53.55
2023-05-19T10:39:49.125Z,53.83
2023-05-19T10:40:48.986Z,54.41
2023-05-19T10:41:49.008Z,54.37
2023-05-19T10:42:49.028Z,56.16
2023-05-19T10:43:48.911Z,55.35
2023-05-19T10:44:49.592Z,55.28
2023-05-19T10:45:48.883Z,55.22
2023-05-19T10:46:49.098Z,53.59
2023-05-19T10:47:48.905Z,54.70
2023-05-19T10:48:49.211Z,54.59
2023-05-19T10:49:48.972Z,54.54
2023-05-19T10:50:48.978Z,54.31
2023-05-19T10:51:49.205Z,53.41
2023-05-19T10:52:49.173Z,54.52
2023-05-19T10:53:49.568Z,54.45
2023-05-19T10:54:49.485Z,56.35
2023-05-19T10:55:49.267Z,59.55
2023-05-19T10:56:49.016Z,55.46
2023-05-19T10:57:48.959Z,55.45
2023-05-19T10:58:49.026Z,56.50
2023-05-19T10:59:49.247Z,57.17
2023-05-19T11:00:49.365Z,53.50
2023-05-19T11:01:49.028Z,54.27
2023-05-19T11:02:49.826Z,55.13
2023-05-19T11:03:49.114Z,54.42
2023-05-19T11:04:51.307Z,54.87
2023-05-19T11:05:49.940Z,53.41
2023-05-19T11:06:48.753Z,54.89
2023-05-19T11:07:49.047Z,55.21
2023-05-19T11:08:49.197Z,56.19
2023-05-19T11:09:48.745Z,54.51
2023-05-19T11:10:48.701Z,62.39
2023-05-19T11:11:48.786Z,60.31
2023-05-19T11:12:48.919Z,58.34
2023-05-19T11:13:48.873Z,58.33
2023-05-19T11:14:48.806Z,58.09
2023-05-19T11:15:48.813Z,58.30
2023-05-19T11:16:49.111Z,58.18
2023-05-19T11:17:49.137Z,56.66
2023-05-19T11:18:48.849Z,55.24
2023-05-19T11:19:48.797Z,54.93
2023-05-19T11:20:48.798Z,56.92
2023-05-19T11:21:48.790Z,55.19
2023-05-19T11:22:48.886Z,53.83
2023-05-19T11:23:49.107Z,54.75
2023-05-19T11:24:48.756Z,55.92
2023-05-19T11:25:48.758Z,56.04
2023-05-19T11:26:48.789Z,54.15
2023-05-19T11:27:48.801Z,55.22
2023-05-19T11:28:48.977Z,54.92
2023-05-19T11:29:48.668Z,52.59
2023-05-19T11:30:48.672Z,54.25
2023-05-19T11:31:48.684Z,55.04
2023-05-19T11:32:48.777Z,53.91
2023-05-19T11:33:48.634Z,54.91
2023-05-19T11:34:48.655Z,55.49
2023-05-19T11:35:48.573Z,55.26
2023-05-19T11:36:48.675Z,54.71
2023-05-19T11:37:48.569Z,53.77
2023-05-19T11:38:48.535Z,55.19
2023-05-19T11:39:48.525Z,56.59
2023-05-19T11:40:48.487Z,57.60
2023-05-19T11:41:48.509Z,55.53
2023-05-19T11:42:48.683Z,53.71
2023-05-19T11:43:48.511Z,57.06
2023-05-19T11:44:48.488Z,56.40
2023-05-19T11:45:48.663Z,57.35
2023-05-19T11:46:48.724Z,57.03
2023-05-19T11:48:01.365Z,57.99
2023-05-19T11:48:50.583Z,53.77
2023-05-19T11:49:48.475Z,53.12
2023-05-19T11:50:48.583Z,55.04
2023-05-19T11:51:48.528Z,55.21
2023-05-19T11:52:48.526Z,53.28
2023-05-19T11:53:48.833Z,53.56
2023-05-19T11:54:48.513Z,54.85
2023-05-19T11:55:49.220Z,55.29
2023-05-19T11:56:48.612Z,52.47
2023-05-19T11:58:02.157Z,52.13
2023-05-19T11:58:50.689Z,51.88
2023-05-19T11:59:48.488Z,52.45
2023-05-19T12:00:48.615Z,53.02
2023-05-19T12:01:48.443Z,53.38
2023-05-19T12:02:48.566Z,54.72
2023-05-19T12:03:48.553Z,52.46
2023-05-19T12:04:48.532Z,53.44
2023-05-19T12:05:48.912Z,55.52
2023-05-19T12:06:48.515Z,54.86
2023-05-19T12:07:48.369Z,57.37
2023-05-19T12:08:48.351Z,55.55
2023-05-19T12:09:48.659Z,54.71
2023-05-19T12:10:48.473Z,53.50
2023-05-19T12:11:48.628Z,53.64
2023-05-19T12:12:48.396Z,54.11
2023-05-19T12:13:48.251Z,52.75
2023-05-19T12:14:48.478Z,54.50
2023-05-19T12:15:48.390Z,52.79
2023-05-19T12:16:48.329Z,53.31
2023-05-19T12:17:48.292Z,54.05
2023-05-19T12:18:48.356Z,52.08
2023-05-19T12:19:48.525Z,51.16
2023-05-19T12:20:48.329Z,51.18
2023-05-19T12:21:48.196Z,51.26
2023-05-19T12:22:48.216Z,50.94
2023-05-19T12:23:48.277Z,50.89
2023-05-19T12:24:48.234Z,51.26
2023-05-19T12:25:48.811Z,52.63
2023-05-19T12:26:48.516Z,52.45
2023-05-19T12:27:48.302Z,58.27
2023-05-19T12:28:48.270Z,52.17
2023-05-19T12:29:48.294Z,55.75
2023-05-19T12:30:48.282Z,54.60
2023-05-19T12:31:48.302Z,55.17
2023-05-19T12:32:48.273Z,56.15
2023-05-19T12:33:48.204Z,54.93
2023-05-19T12:34:48.206Z,55.45
2023-05-19T12:35:48.216Z,57.71
2023-05-19T12:36:48.248Z,56.94
2023-05-19T12:37:48.547Z,57.44
2023-05-19T12:38:48.188Z,56.33
2023-05-19T12:39:48.215Z,52.78
2023-05-19T12:40:48.158Z,53.55
2023-05-19T12:41:48.299Z,54.73
2023-05-19T12:42:48.248Z,56.22
2023-05-19T12:43:48.175Z,55.62
2023-05-19T12:44:48.234Z,57.42
2023-05-19T12:45:48.235Z,59.45
2023-05-19T12:46:48.444Z,59.28
2023-05-19T12:47:48.124Z,55.79
2023-05-19T12:48:48.669Z,58.07
2023-05-19T12:49:48.100Z,58.53
2023-05-19T12:50:48.153Z,61.67
2023-05-19T12:51:48.145Z,65.91
2023-05-19T12:52:48.216Z,64.13
2023-05-19T12:53:47.995Z,57.70
2023-05-19T12:54:48.028Z,54.04
2023-05-19T12:55:47.967Z,56.58
2023-05-19T12:56:47.944Z,53.54
2023-05-19T12:57:49.942Z,52.89
2023-05-19T12:58:49.048Z,54.06
2023-05-19T12:59:47.901Z,53.05
2023-05-19T13:00:48.149Z,51.32
2023-05-19T13:01:48.372Z,53.91
2023-05-19T13:02:48.444Z,52.49
2023-05-19T13:03:48.137Z,54.26
2023-05-19T13:04:47.995Z,52.98
2023-05-19T13:05:48.118Z,53.89
2023-05-19T13:06:48.024Z,54.55
2023-05-19T13:07:48.113Z,52.34
2023-05-19T13:08:47.996Z,53.51
2023-05-19T13:09:48.026Z,54.00
2023-05-19T13:10:47.891Z,55.13
2023-05-19T13:11:48.056Z,55.42
2023-05-19T13:12:48.229Z,56.48
2023-05-19T13:13:47.902Z,58.04
2023-05-19T13:14:48.148Z,55.55
2023-05-19T13:15:47.924Z,54.59
2023-05-19T13:16:47.951Z,55.06
2023-05-19T13:17:47.936Z,55.37
2023-05-19T13:18:47.950Z,56.27
2023-05-19T13:19:48.250Z,54.87
2023-05-19T13:20:47.873Z,52.07
2023-05-19T13:21:47.890Z,53.88
2023-05-19T13:22:48.129Z,51.89
2023-05-19T13:23:47.861Z,54.12
2023-05-19T13:24:47.967Z,55.45
2023-05-19T13:25:48.111Z,54.96
2023-05-19T13:26:47.826Z,54.38
2023-05-19T13:27:48.028Z,53.60
2023-05-19T13:28:47.926Z,55.45
2023-05-19T13:29:48.786Z,52.74
2023-05-19T13:30:47.898Z,53.29
2023-05-19T13:31:47.804Z,52.41
2023-05-19T13:32:47.896Z,52.18
2023-05-19T13:33:47.847Z,53.47
2023-05-19T13:34:47.873Z,52.94
2023-05-19T13:35:47.867Z,62.13
2023-05-19T13:36:48.629Z,66.77
2023-05-19T13:37:47.911Z,53.07
2023-05-19T13:38:48.001Z,53.14
2023-05-19T13:39:47.741Z,53.41
2023-05-19T13:40:47.767Z,53.17
2023-05-19T13:41:47.617Z,51.33
2023-05-19T13:42:47.606Z,53.95
2023-05-19T13:43:47.645Z,58.96
2023-05-19T13:44:47.668Z,52.75
2023-05-19T13:45:47.804Z,52.72
2023-05-19T13:46:49.999Z,51.57
2023-05-19T13:47:47.662Z,51.72
2023-05-19T13:48:48.110Z,54.59
2023-05-19T13:49:47.658Z,52.41
2023-05-19T13:50:47.961Z,52.93
2023-05-19T13:51:47.694Z,54.80
2023-05-19T13:52:47.828Z,51.40
2023-05-19T13:53:47.691Z,52.09
2023-05-19T13:54:47.685Z,52.44
2023-05-19T13:55:47.742Z,54.73
2023-05-19T13:56:47.702Z,51.68
2023-05-19T13:57:47.700Z,58.76
2023-05-19T13:58:47.627Z,59.36
2023-05-19T14:00:00.942Z,53.00
2023-05-19T14:00:49.685Z,54.06
2023-05-19T14:01:47.839Z,52.86
2023-05-19T14:02:47.673Z,53.86
2023-05-19T14:03:47.681Z,54.10
2023-05-19T14:04:47.559Z,54.87
2023-05-19T14:05:47.586Z,56.64
2023-05-19T14:06:47.797Z,55.27
2023-05-19T14:07:48.094Z,54.69
2023-05-19T14:08:47.609Z,54.32
2023-05-19T14:09:47.554Z,57.80
2023-05-19T14:10:47.765Z,56.85
2023-05-19T14:11:47.812Z,57.76
2023-05-19T14:13:14.176Z,55.10
2023-05-19T14:13:51.740Z,55.14
2023-05-19T14:14:47.450Z,54.82
2023-05-19T14:15:47.564Z,53.80
2023-05-19T14:16:47.626Z,54.04
2023-05-19T14:17:47.528Z,52.14
2023-05-19T14:18:47.946Z,51.77
2023-05-19T14:19:47.406Z,51.16
2023-05-19T14:20:47.444Z,50.82
2023-05-19T14:21:47.504Z,54.26
2023-05-19T14:22:47.787Z,52.09
2023-05-19T14:23:47.820Z,52.13
2023-05-19T14:24:47.697Z,52.07
2023-05-19T14:25:47.560Z,52.43
2023-05-19T14:26:47.436Z,52.32
2023-05-19T14:27:47.845Z,53.94
2023-05-19T14:28:47.439Z,53.59
2023-05-19T14:29:47.779Z,53.34
2023-05-19T14:30:47.528Z,51.54
2023-05-19T14:31:47.501Z,53.13
2023-05-19T14:32:47.908Z,63.50
2023-05-19T14:33:47.474Z,58.04
2023-05-19T14:34:48.324Z,53.43
2023-05-19T14:35:47.861Z,55.01
2023-05-19T14:36:47.506Z,52.43
2023-05-19T14:37:47.918Z,54.23
2023-05-19T14:38:48.393Z,54.09
2023-05-19T14:39:48.892Z,53.92
2023-05-19T14:40:47.913Z,53.39
2023-05-19T14:41:47.845Z,53.07
2023-05-19T14:42:47.925Z,53.99
2023-05-19T14:43:48.919Z,54.48
2023-05-19T14:44:47.831Z,55.78
2023-05-19T14:45:47.758Z,54.65
2023-05-19T14:46:48.076Z,53.08
2023-05-19T14:47:48.092Z,53.61
2023-05-19T14:48:47.689Z,52.51
2023-05-19T14:49:48.170Z,53.10
2023-05-19T14:50:47.993Z,53.21
2023-05-19T14:51:47.680Z,54.65
2023-05-19T14:52:47.262Z,55.18
2023-05-19T14:53:47.666Z,56.47
2023-05-19T14:54:47.301Z,52.51
2023-05-19T14:55:47.268Z,53.13
2023-05-19T14:56:47.288Z,55.87
2023-05-19T14:57:47.161Z,53.30
2023-05-19T14:58:47.211Z,57.33
2023-05-19T14:59:47.131Z,57.87
2023-05-19T15:00:47.567Z,58.35
2023-05-19T15:01:47.796Z,56.63
2023-05-19T15:02:47.515Z,55.64
2023-05-19T15:03:47.215Z,60.16
2023-05-19T15:04:47.900Z,64.35
2023-05-19T15:05:47.799Z,62.43
2023-05-19T15:06:52.293Z,57.56
2023-05-19T15:07:48.245Z,56.10
2023-05-19T15:08:47.450Z,52.94
2023-05-19T15:09:47.081Z,55.21
2023-05-19T15:10:47.479Z,54.27
2023-05-19T15:11:47.260Z,54.69
2023-05-19T15:12:47.671Z,56.79
2023-05-19T15:13:47.688Z,56.28
2023-05-19T15:14:47.364Z,54.91
2023-05-19T15:15:47.160Z,55.90
2023-05-19T15:16:47.659Z,56.27
2023-05-19T15:17:47.213Z,57.12
2023-05-19T15:18:47.073Z,55.94
2023-05-19T15:19:47.031Z,55.78
2023-05-19T15:20:47.274Z,56.80
2023-05-19T15:21:47.547Z,56.37
2023-05-19T15:22:47.037Z,56.87
2023-05-19T15:23:47.389Z,58.78
2023-05-19T15:24:47.274Z,55.65
2023-05-19T15:25:47.484Z,55.04
2023-05-19T15:26:46.963Z,55.72
2023-05-19T15:27:47.191Z,54.91
2023-05-19T15:28:47.392Z,53.62
2023-05-19T15:29:47.668Z,52.55
2023-05-19T15:30:47.306Z,54.47
2023-05-19T15:31:47.260Z,54.88
2023-05-19T15:32:47.782Z,56.05
2023-05-19T15:33:47.328Z,54.36
2023-05-19T15:34:47.274Z,54.72
2023-05-19T15:35:47.444Z,54.16
2023-05-19T15:36:47.248Z,53.95
2023-05-19T15:37:47.288Z,52.56
2023-05-19T15:38:46.918Z,54.59
2023-05-19T15:39:47.135Z,55.36
2023-05-19T15:40:47.035Z,53.75
2023-05-19T15:41:46.898Z,52.82
2023-05-19T15:42:46.957Z,53.63
2023-05-19T15:43:46.965Z,53.65
2023-05-19T15:44:46.943Z,52.78
2023-05-19T15:45:46.779Z,52.00
2023-05-19T15:46:46.979Z,53.90
2023-05-19T15:47:46.806Z,52.83
2023-05-19T15:48:46.806Z,54.51
2023-05-19T15:49:47.085Z,54.56
2023-05-19T15:50:46.732Z,56.68
2023-05-19T15:51:47.088Z,54.65
2023-05-19T15:52:46.990Z,55.46
2023-05-19T15:53:47.483Z,52.83
2023-05-19T15:54:46.921Z,54.50
2023-05-19T15:55:47.559Z,54.62
2023-05-19T15:56:46.876Z,55.59
2023-05-19T15:57:46.827Z,53.78
2023-05-19T15:58:47.296Z,55.03
2023-05-19T15:59:47.343Z,53.72
2023-05-19T16:00:47.116Z,55.73
2023-05-19T16:01:47.318Z,54.92
2023-05-19T16:02:47.536Z,55.74
2023-05-19T16:03:47.026Z,55.78
2023-05-19T16:04:46.776Z,54.80
2023-05-19T16:05:46.699Z,54.19
2023-05-19T16:06:46.812Z,53.97
2023-05-19T16:07:46.664Z,55.49
2023-05-19T16:08:46.857Z,54.69
2023-05-19T16:09:46.740Z,55.28
2023-05-19T16:10:47.051Z,52.71
2023-05-19T16:11:46.710Z,54.07
2023-05-19T16:12:47.077Z,55.61
2023-05-19T16:13:47.727Z,57.51
2023-05-19T16:14:47.196Z,56.07
2023-05-19T16:15:47.001Z,55.85
2023-05-19T16:16:46.694Z,56.32
2023-05-19T16:17:46.754Z,57.98
2023-05-19T16:18:47.089Z,57.02
2023-05-19T16:19:47.444Z,55.55
2023-05-19T16:20:46.902Z,57.04
2023-05-19T16:21:47.153Z,55.88
2023-05-19T16:22:47.129Z,54.48
2023-05-19T16:23:46.961Z,55.16
2023-05-19T16:24:47.121Z,56.25
2023-05-19T16:25:46.511Z,58.05
2023-05-19T16:26:46.581Z,56.04
2023-05-19T16:27:46.482Z,54.28
2023-05-19T16:28:47.058Z,54.35
2023-05-19T16:29:46.544Z,58.35
2023-05-19T16:30:47.114Z,62.84
2023-05-19T16:31:47.029Z,52.28
2023-05-19T16:32:47.010Z,52.61
2023-05-19T16:33:46.827Z,53.98
2023-05-19T16:34:46.626Z,57.39
2023-05-19T16:35:47.003Z,55.15
2023-05-19T16:36:46.530Z,55.37
2023-05-19T16:37:46.485Z,54.52
2023-05-19T16:38:47.001Z,52.05
2023-05-19T16:39:47.689Z,53.10
2023-05-19T16:40:46.472Z,53.89
2023-05-19T16:41:46.496Z,53.13
2023-05-19T16:42:46.614Z,53.58
2023-05-19T16:43:46.428Z,53.87
2023-05-19T16:44:47.246Z,54.92
2023-05-19T16:45:47.116Z,54.67
2023-05-19T16:46:47.032Z,53.82
2023-05-19T16:47:47.136Z,55.05
2023-05-19T16:48:47.052Z,53.16
2023-05-19T16:49:46.967Z,53.13
2023-05-19T16:50:47.095Z,54.93
2023-05-19T16:51:48.295Z,56.02